sensor_id;sensor_type;location;lat;lon;timestamp;temperature;humidity
16578;DHT22;8401;52.528;13.340;2023-08-24T00:00:42;20.80;99.90
16578;DHT22;8401;52.528;13.340;2023-08-24T00:03:08;20.70;99.90
16578;DHT22;8401;52.528;13.340;2023-08-24T00:05:37;20.70;99.90
16578;DHT22;8401;52.528;13.340;2023-08-24T00:08:06;20.70;99.90
16578;DHT22;8401;52.528;13.340;2023-08-24T00:10:33;20.70;99.90
16578;DHT22;8401;52.528;13.340;2023-08-24T00:12:59;20.70;99.90
16578;DHT22;8401;52.528;13.340;2023-08-24T00:15:25;20.70;99.90
16578;DHT22;8401;52.528;13.340;2023-08-24T00:17:51;20.50;99.90
16578;DHT22;8401;52.528;13.340;2023-08-24T00:20:17;20.50;99.90
16578;DHT22;8401;52.528;13.340;2023-08-24T00:22:42;20.50;99.90
16578;DHT22;8401;52.528;13.340;2023-08-24T00:25:09;20.50;99.90
16578;DHT22;8401;52.528;13.340;2023-08-24T00:27:35;20.50;99.90
16578;DHT22;8401;52.528;13.340;2023-08-24T00:30:06;20.50;99.90
16578;DHT22;8401;52.528;13.340;2023-08-24T00:32:35;20.60;99.90
16578;DHT22;8401;52.528;13.340;2023-08-24T00:35:02;20.50;99.90
16578;DHT22;8401;52.528;13.340;2023-08-24T00:37:28;20.40;99.90
16578;DHT22;8401;52.528;13.340;2023-08-24T00:39:54;20.40;99.90
16578;DHT22;8401;52.528;13.340;2023-08-24T00:42:20;20.40;99.90
16578;DHT22;8401;52.528;13.340;2023-08-24T00:44:48;20.40;99.90
16578;DHT22;8401;52.528;13.340;2023-08-24T00:47:14;20.40;99.90
16578;DHT22;8401;52.528;13.340;2023-08-24T00:49:41;20.40;99.90
16578;DHT22;8401;52.528;13.340;2023-08-24T00:52:06;20.40;99.90
16578;DHT22;8401;52.528;13.340;2023-08-24T00:54:32;20.40;99.90
16578;DHT22;8401;52.528;13.340;2023-08-24T00:56:58;20.30;99.90
16578;DHT22;8401;52.528;13.340;2023-08-24T00:59:24;20.20;99.90
16578;DHT22;8401;52.528;13.340;2023-08-24T01:01:51;20.20;99.90
16578;DHT22;8401;52.528;13.340;2023-08-24T01:04:17;20.30;99.90
16578;DHT22;8401;52.528;13.340;2023-08-24T01:06:43;20.20;99.90
16578;DHT22;8401;52.528;13.340;2023-08-24T01:09:09;20.20;99.90
16578;DHT22;8401;52.528;13.340;2023-08-24T01:14:53;20.10;99.90
16578;DHT22;8401;52.528;13.340;2023-08-24T01:17:24;20.20;99.90
16578;DHT22;8401;52.528;13.340;2023-08-24T01:19:54;20.20;99.90
16578;DHT22;8401;52.528;13.340;2023-08-24T01:25:20;20.20;99.90
16578;DHT22;8401;52.528;13.340;2023-08-24T01:27:48;20.20;99.90
16578;DHT22;8401;52.528;13.340;2023-08-24T01:30:14;20.20;99.90
16578;DHT22;8401;52.528;13.340;2023-08-24T01:32:40;20.30;99.90
16578;DHT22;8401;52.528;13.340;2023-08-24T01:35:09;20.30;99.90
16578;DHT22;8401;52.528;13.340;2023-08-24T01:37:35;20.30;99.90
16578;DHT22;8401;52.528;13.340;2023-08-24T01:40:13;20.40;99.90
16578;DHT22;8401;52.528;13.340;2023-08-24T01:43:03;20.50;99.90
16578;DHT22;8401;52.528;13.340;2023-08-24T01:45:32;20.40;99.90
16578;DHT22;8401;52.528;13.340;2023-08-24T01:48:02;20.40;99.90
16578;DHT22;8401;52.528;13.340;2023-08-24T01:50:29;20.50;99.90
16578;DHT22;8401;52.528;13.340;2023-08-24T01:52:55;20.40;99.90
16578;DHT22;8401;52.528;13.340;2023-08-24T01:55:21;20.50;99.90
16578;DHT22;8401;52.528;13.340;2023-08-24T01:57:48;20.50;99.90
16578;DHT22;8401;52.528;13.340;2023-08-24T02:00:14;20.60;99.90
16578;DHT22;8401;52.528;13.340;2023-08-24T02:02:42;20.60;99.90
16578;DHT22;8401;52.528;13.340;2023-08-24T02:05:08;20.50;99.90
16578;DHT22;8401;52.528;13.340;2023-08-24T02:07:33;20.60;99.90
16578;DHT22;8401;52.528;13.340;2023-08-24T02:10:00;20.50;99.90
16578;DHT22;8401;52.528;13.340;2023-08-24T02:12:26;20.50;99.90
16578;DHT22;8401;52.528;13.340;2023-08-24T02:14:51;20.50;99.90
16578;DHT22;8401;52.528;13.340;2023-08-24T02:17:17;20.60;99.90
16578;DHT22;8401;52.528;13.340;2023-08-24T02:19:42;20.60;99.90
16578;DHT22;8401;52.528;13.340;2023-08-24T02:22:08;20.70;99.90
16578;DHT22;8401;52.528;13.340;2023-08-24T02:24:34;20.80;99.90
16578;DHT22;8401;52.528;13.340;2023-08-24T02:27:00;20.70;99.90
16578;DHT22;8401;52.528;13.340;2023-08-24T02:29:26;20.80;99.90
16578;DHT22;8401;52.528;13.340;2023-08-24T02:31:53;20.70;99.90
16578;DHT22;8401;52.528;13.340;2023-08-24T02:34:18;20.80;99.90
16578;DHT22;8401;52.528;13.340;2023-08-24T02:36:44;20.80;99.90
16578;DHT22;8401;52.528;13.340;2023-08-24T02:39:10;20.80;99.90
16578;DHT22;8401;52.528;13.340;2023-08-24T02:41:35;20.80;99.90
16578;DHT22;8401;52.528;13.340;2023-08-24T02:44:04;20.70;99.90
16578;DHT22;8401;52.528;13.340;2023-08-24T02:46:30;20.80;99.90
16578;DHT22;8401;52.528;13.340;2023-08-24T02:48:55;20.80;99.90
16578;DHT22;8401;52.528;13.340;2023-08-24T02:51:22;20.90;99.90
16578;DHT22;8401;52.528;13.340;2023-08-24T02:53:48;20.90;99.90
16578;DHT22;8401;52.528;13.340;2023-08-24T02:56:14;21.00;99.90
16578;DHT22;8401;52.528;13.340;2023-08-24T02:58:40;20.90;99.90
16578;DHT22;8401;52.528;13.340;2023-08-24T03:01:06;20.80;99.90
16578;DHT22;8401;52.528;13.340;2023-08-24T03:03:35;20.80;99.90
16578;DHT22;8401;52.528;13.340;2023-08-24T03:06:03;20.70;99.90
16578;DHT22;8401;52.528;13.340;2023-08-24T03:08:30;20.80;99.90
16578;DHT22;8401;52.528;13.340;2023-08-24T03:10:56;20.90;99.90
16578;DHT22;8401;52.528;13.340;2023-08-24T03:13:22;20.80;99.90
16578;DHT22;8401;52.528;13.340;2023-08-24T03:15:48;20.90;99.90
16578;DHT22;8401;52.528;13.340;2023-08-24T03:18:15;20.80;99.90
16578;DHT22;8401;52.528;13.340;2023-08-24T03:20:41;20.90;99.90
16578;DHT22;8401;52.528;13.340;2023-08-24T03:23:07;20.90;99.90
16578;DHT22;8401;52.528;13.340;2023-08-24T03:25:38;20.80;99.90
16578;DHT22;8401;52.528;13.340;2023-08-24T03:28:04;20.90;99.90
16578;DHT22;8401;52.528;13.340;2023-08-24T03:30:29;20.80;99.90
16578;DHT22;8401;52.528;13.340;2023-08-24T03:32:55;20.80;99.90
16578;DHT22;8401;52.528;13.340;2023-08-24T03:35:21;20.80;99.90
16578;DHT22;8401;52.528;13.340;2023-08-24T03:37:47;20.80;99.90
16578;DHT22;8401;52.528;13.340;2023-08-24T03:40:12;20.80;99.90
16578;DHT22;8401;52.528;13.340;2023-08-24T03:42:38;20.80;99.90
16578;DHT22;8401;52.528;13.340;2023-08-24T03:45:05;20.80;99.90
16578;DHT22;8401;52.528;13.340;2023-08-24T03:47:31;20.90;99.90
16578;DHT22;8401;52.528;13.340;2023-08-24T03:49:56;20.90;99.90
16578;DHT22;8401;52.528;13.340;2023-08-24T03:52:22;21.00;99.90
16578;DHT22;8401;52.528;13.340;2023-08-24T03:54:48;21.00;99.90
16578;DHT22;8401;52.528;13.340;2023-08-24T03:57:14;20.80;99.90
16578;DHT22;8401;52.528;13.340;2023-08-24T03:59:39;20.80;99.90
16578;DHT22;8401;52.528;13.340;2023-08-24T04:02:05;20.80;99.90
16578;DHT22;8401;52.528;13.340;2023-08-24T04:04:31;20.70;99.90
16578;DHT22;8401;52.528;13.340;2023-08-24T04:06:57;20.70;99.90
16578;DHT22;8401;52.528;13.340;2023-08-24T04:09:22;20.70;99.90
16578;DHT22;8401;52.528;13.340;2023-08-24T04:11:48;20.80;99.90
16578;DHT22;8401;52.528;13.340;2023-08-24T04:14:14;20.90;99.90
16578;DHT22;8401;52.528;13.340;2023-08-24T04:16:39;21.10;99.90
16578;DHT22;8401;52.528;13.340;2023-08-24T04:19:05;21.00;99.90
16578;DHT22;8401;52.528;13.340;2023-08-24T04:21:31;21.00;99.90
16578;DHT22;8401;52.528;13.340;2023-08-24T04:23:56;20.90;99.90
16578;DHT22;8401;52.528;13.340;2023-08-24T04:26:22;21.00;99.90
16578;DHT22;8401;52.528;13.340;2023-08-24T04:28:48;21.00;99.90
16578;DHT22;8401;52.528;13.340;2023-08-24T04:31:13;21.10;99.90
16578;DHT22;8401;52.528;13.340;2023-08-24T04:33:39;21.20;99.90
16578;DHT22;8401;52.528;13.340;2023-08-24T04:36:04;21.00;99.90
16578;DHT22;8401;52.528;13.340;2023-08-24T04:38:30;21.10;99.90
16578;DHT22;8401;52.528;13.340;2023-08-24T04:40:56;21.00;99.90
16578;DHT22;8401;52.528;13.340;2023-08-24T04:43:23;20.90;99.90
16578;DHT22;8401;52.528;13.340;2023-08-24T04:45:50;20.90;99.90
16578;DHT22;8401;52.528;13.340;2023-08-24T04:48:21;20.90;99.90
16578;DHT22;8401;52.528;13.340;2023-08-24T04:50:47;20.80;99.90
16578;DHT22;8401;52.528;13.340;2023-08-24T04:53:17;21.00;99.90
16578;DHT22;8401;52.528;13.340;2023-08-24T04:55:44;21.10;99.90
16578;DHT22;8401;52.528;13.340;2023-08-24T04:58:10;21.00;99.90
16578;DHT22;8401;52.528;13.340;2023-08-24T05:00:36;21.00;99.90
16578;DHT22;8401;52.528;13.340;2023-08-24T05:03:06;20.90;99.90
16578;DHT22;8401;52.528;13.340;2023-08-24T05:05:33;20.90;99.90
16578;DHT22;8401;52.528;13.340;2023-08-24T05:07:59;21.10;99.90
16578;DHT22;8401;52.528;13.340;2023-08-24T05:10:26;21.00;99.90
16578;DHT22;8401;52.528;13.340;2023-08-24T05:12:54;21.10;99.90
16578;DHT22;8401;52.528;13.340;2023-08-24T05:15:21;21.20;99.90
16578;DHT22;8401;52.528;13.340;2023-08-24T05:17:47;21.20;99.90
16578;DHT22;8401;52.528;13.340;2023-08-24T05:20:12;21.10;99.90
16578;DHT22;8401;52.528;13.340;2023-08-24T05:22:39;21.10;99.90
16578;DHT22;8401;52.528;13.340;2023-08-24T05:25:05;21.10;99.90
16578;DHT22;8401;52.528;13.340;2023-08-24T05:27:31;21.10;99.90
16578;DHT22;8401;52.528;13.340;2023-08-24T05:29:57;21.20;99.90
16578;DHT22;8401;52.528;13.340;2023-08-24T05:32:23;21.20;99.90
16578;DHT22;8401;52.528;13.340;2023-08-24T05:34:48;21.30;99.90
16578;DHT22;8401;52.528;13.340;2023-08-24T05:37:14;21.40;99.90
16578;DHT22;8401;52.528;13.340;2023-08-24T05:39:40;21.30;99.90
16578;DHT22;8401;52.528;13.340;2023-08-24T05:42:07;21.30;99.90
16578;DHT22;8401;52.528;13.340;2023-08-24T05:44:36;21.40;99.90
16578;DHT22;8401;52.528;13.340;2023-08-24T05:47:02;21.50;99.90
16578;DHT22;8401;52.528;13.340;2023-08-24T05:49:27;21.60;99.90
16578;DHT22;8401;52.528;13.340;2023-08-24T05:51:53;21.60;99.90
16578;DHT22;8401;52.528;13.340;2023-08-24T05:54:19;21.70;99.90
16578;DHT22;8401;52.528;13.340;2023-08-24T05:56:45;21.60;99.90
16578;DHT22;8401;52.528;13.340;2023-08-24T05:59:11;21.50;99.90
16578;DHT22;8401;52.528;13.340;2023-08-24T06:01:37;21.50;99.90
16578;DHT22;8401;52.528;13.340;2023-08-24T06:04:09;21.40;99.90
16578;DHT22;8401;52.528;13.340;2023-08-24T06:06:35;21.50;99.90
16578;DHT22;8401;52.528;13.340;2023-08-24T06:09:01;21.50;99.90
16578;DHT22;8401;52.528;13.340;2023-08-24T06:11:30;21.40;99.90
16578;DHT22;8401;52.528;13.340;2023-08-24T06:13:55;21.40;99.90
16578;DHT22;8401;52.528;13.340;2023-08-24T06:16:21;21.50;99.90
16578;DHT22;8401;52.528;13.340;2023-08-24T06:18:46;21.50;99.90
16578;DHT22;8401;52.528;13.340;2023-08-24T06:21:13;21.40;99.90
16578;DHT22;8401;52.528;13.340;2023-08-24T06:23:38;21.40;99.90
16578;DHT22;8401;52.528;13.340;2023-08-24T06:26:04;21.50;99.90
16578;DHT22;8401;52.528;13.340;2023-08-24T06:28:30;21.60;99.90
16578;DHT22;8401;52.528;13.340;2023-08-24T06:30:56;21.70;99.90
16578;DHT22;8401;52.528;13.340;2023-08-24T06:33:27;21.80;99.90
16578;DHT22;8401;52.528;13.340;2023-08-24T06:35:58;21.80;99.90
16578;DHT22;8401;52.528;13.340;2023-08-24T06:38:24;21.80;99.90
16578;DHT22;8401;52.528;13.340;2023-08-24T06:40:50;21.90;99.90
16578;DHT22;8401;52.528;13.340;2023-08-24T06:43:15;21.90;99.90
16578;DHT22;8401;52.528;13.340;2023-08-24T06:45:41;21.80;99.90
16578;DHT22;8401;52.528;13.340;2023-08-24T06:48:07;21.80;99.90
16578;DHT22;8401;52.528;13.340;2023-08-24T06:50:33;21.90;99.90
16578;DHT22;8401;52.528;13.340;2023-08-24T06:52:59;22.00;99.90
16578;DHT22;8401;52.528;13.340;2023-08-24T06:55:26;22.10;99.90
16578;DHT22;8401;52.528;13.340;2023-08-24T06:57:52;22.10;99.90
16578;DHT22;8401;52.528;13.340;2023-08-24T07:00:19;22.10;99.90
16578;DHT22;8401;52.528;13.340;2023-08-24T07:02:46;22.20;99.90
16578;DHT22;8401;52.528;13.340;2023-08-24T07:05:12;22.20;99.90
16578;DHT22;8401;52.528;13.340;2023-08-24T07:07:38;22.20;99.90
16578;DHT22;8401;52.528;13.340;2023-08-24T07:10:04;22.40;99.90
16578;DHT22;8401;52.528;13.340;2023-08-24T07:12:30;22.40;99.90
16578;DHT22;8401;52.528;13.340;2023-08-24T07:14:56;22.60;99.90
16578;DHT22;8401;52.528;13.340;2023-08-24T07:17:21;22.60;99.90
16578;DHT22;8401;52.528;13.340;2023-08-24T07:19:47;22.70;99.90
16578;DHT22;8401;52.528;13.340;2023-08-24T07:22:13;22.80;99.90
16578;DHT22;8401;52.528;13.340;2023-08-24T07:24:39;22.80;99.90
16578;DHT22;8401;52.528;13.340;2023-08-24T07:27:05;22.80;99.90
16578;DHT22;8401;52.528;13.340;2023-08-24T07:29:31;22.90;99.90
16578;DHT22;8401;52.528;13.340;2023-08-24T07:31:57;22.90;99.90
16578;DHT22;8401;52.528;13.340;2023-08-24T07:34:22;23.00;99.90
16578;DHT22;8401;52.528;13.340;2023-08-24T07:36:49;23.30;99.90
16578;DHT22;8401;52.528;13.340;2023-08-24T07:39:15;23.50;99.90
16578;DHT22;8401;52.528;13.340;2023-08-24T07:41:41;23.50;99.90
16578;DHT22;8401;52.528;13.340;2023-08-24T07:44:07;23.60;99.90
16578;DHT22;8401;52.528;13.340;2023-08-24T07:46:33;23.70;99.90
16578;DHT22;8401;52.528;13.340;2023-08-24T07:48:59;23.60;99.90
16578;DHT22;8401;52.528;13.340;2023-08-24T07:51:25;23.60;99.90
16578;DHT22;8401;52.528;13.340;2023-08-24T07:53:50;23.90;99.90
16578;DHT22;8401;52.528;13.340;2023-08-24T07:56:18;24.00;99.90
16578;DHT22;8401;52.528;13.340;2023-08-24T07:58:44;24.20;99.90
16578;DHT22;8401;52.528;13.340;2023-08-24T08:01:11;24.60;99.90
16578;DHT22;8401;52.528;13.340;2023-08-24T08:03:37;24.30;99.90
16578;DHT22;8401;52.528;13.340;2023-08-24T08:06:02;24.30;99.90
16578;DHT22;8401;52.528;13.340;2023-08-24T08:08:28;25.20;99.90
16578;DHT22;8401;52.528;13.340;2023-08-24T08:10:59;25.10;99.90
16578;DHT22;8401;52.528;13.340;2023-08-24T08:13:26;25.00;99.90
16578;DHT22;8401;52.528;13.340;2023-08-24T08:15:52;24.80;99.90
16578;DHT22;8401;52.528;13.340;2023-08-24T08:18:17;24.90;99.90
16578;DHT22;8401;52.528;13.340;2023-08-24T08:20:43;25.30;99.90
16578;DHT22;8401;52.528;13.340;2023-08-24T08:23:08;25.20;99.90
16578;DHT22;8401;52.528;13.340;2023-08-24T08:25:34;24.90;99.90
16578;DHT22;8401;52.528;13.340;2023-08-24T08:28:00;25.20;99.90
16578;DHT22;8401;52.528;13.340;2023-08-24T08:30:25;25.00;99.90
16578;DHT22;8401;52.528;13.340;2023-08-24T08:32:51;24.90;99.90
16578;DHT22;8401;52.528;13.340;2023-08-24T08:35:18;24.70;99.90
16578;DHT22;8401;52.528;13.340;2023-08-24T08:37:44;24.60;99.90
16578;DHT22;8401;52.528;13.340;2023-08-24T08:40:11;24.30;99.90
16578;DHT22;8401;52.528;13.340;2023-08-24T08:42:37;24.40;99.90
16578;DHT22;8401;52.528;13.340;2023-08-24T08:45:04;24.30;99.90
16578;DHT22;8401;52.528;13.340;2023-08-24T08:47:33;24.30;99.90
16578;DHT22;8401;52.528;13.340;2023-08-24T08:50:02;24.30;99.90
16578;DHT22;8401;52.528;13.340;2023-08-24T08:52:28;24.30;99.90
16578;DHT22;8401;52.528;13.340;2023-08-24T08:54:54;24.40;99.90
16578;DHT22;8401;52.528;13.340;2023-08-24T08:57:22;24.40;99.90
16578;DHT22;8401;52.528;13.340;2023-08-24T08:59:48;24.40;99.90
16578;DHT22;8401;52.528;13.340;2023-08-24T09:02:16;24.40;99.90
16578;DHT22;8401;52.528;13.340;2023-08-24T09:04:44;25.00;99.90
16578;DHT22;8401;52.528;13.340;2023-08-24T09:07:14;25.30;99.90
16578;DHT22;8401;52.528;13.340;2023-08-24T09:09:41;25.40;99.90
16578;DHT22;8401;52.528;13.340;2023-08-24T09:12:07;26.40;99.90
16578;DHT22;8401;52.528;13.340;2023-08-24T09:14:33;28.30;99.90
16578;DHT22;8401;52.528;13.340;2023-08-24T09:16:59;28.80;99.90
16578;DHT22;8401;52.528;13.340;2023-08-24T09:19:29;29.50;99.90
16578;DHT22;8401;52.528;13.340;2023-08-24T09:21:59;28.90;99.90
16578;DHT22;8401;52.528;13.340;2023-08-24T09:24:32;27.90;99.90
16578;DHT22;8401;52.528;13.340;2023-08-24T09:26:59;26.80;99.90
16578;DHT22;8401;52.528;13.340;2023-08-24T09:29:25;26.50;99.90
16578;DHT22;8401;52.528;13.340;2023-08-24T09:31:51;28.00;99.90
16578;DHT22;8401;52.528;13.340;2023-08-24T09:34:21;29.90;99.90
16578;DHT22;8401;52.528;13.340;2023-08-24T09:36:52;31.00;99.90
16578;DHT22;8401;52.528;13.340;2023-08-24T09:39:17;30.40;99.90
16578;DHT22;8401;52.528;13.340;2023-08-24T09:41:46;32.20;99.90
16578;DHT22;8401;52.528;13.340;2023-08-24T09:44:12;32.60;99.90
16578;DHT22;8401;52.528;13.340;2023-08-24T09:46:39;32.60;99.90
16578;DHT22;8401;52.528;13.340;2023-08-24T09:49:06;32.10;99.90
16578;DHT22;8401;52.528;13.340;2023-08-24T09:51:37;31.60;99.90
16578;DHT22;8401;52.528;13.340;2023-08-24T09:54:09;31.40;99.90
16578;DHT22;8401;52.528;13.340;2023-08-24T09:56:39;30.70;99.90
16578;DHT22;8401;52.528;13.340;2023-08-24T09:59:16;32.00;99.90
16578;DHT22;8401;52.528;13.340;2023-08-24T10:01:48;32.30;99.90
16578;DHT22;8401;52.528;13.340;2023-08-24T10:04:23;33.10;99.90
16578;DHT22;8401;52.528;13.340;2023-08-24T10:06:52;32.30;99.90
16578;DHT22;8401;52.528;13.340;2023-08-24T10:09:32;32.60;99.90
16578;DHT22;8401;52.528;13.340;2023-08-24T10:12:00;33.10;99.90
16578;DHT22;8401;52.528;13.340;2023-08-24T10:14:35;32.80;99.90
16578;DHT22;8401;52.528;13.340;2023-08-24T10:17:04;32.30;99.90
16578;DHT22;8401;52.528;13.340;2023-08-24T10:19:31;32.10;99.90
16578;DHT22;8401;52.528;13.340;2023-08-24T10:21:59;32.40;99.90
16578;DHT22;8401;52.528;13.340;2023-08-24T10:24:26;32.00;99.90
16578;DHT22;8401;52.528;13.340;2023-08-24T10:26:52;33.90;99.90
16578;DHT22;8401;52.528;13.340;2023-08-24T10:29:20;32.60;99.90
16578;DHT22;8401;52.528;13.340;2023-08-24T10:31:46;31.70;99.90
16578;DHT22;8401;52.528;13.340;2023-08-24T10:34:13;33.10;99.90
16578;DHT22;8401;52.528;13.340;2023-08-24T10:36:40;34.30;99.90
16578;DHT22;8401;52.528;13.340;2023-08-24T10:39:06;35.00;99.90
16578;DHT22;8401;52.528;13.340;2023-08-24T10:42:10;34.90;99.90
16578;DHT22;8401;52.528;13.340;2023-08-24T10:44:37;33.60;99.90
16578;DHT22;8401;52.528;13.340;2023-08-24T10:49:39;33.00;99.90
16578;DHT22;8401;52.528;13.340;2023-08-24T10:52:25;32.80;99.90
16578;DHT22;8401;52.528;13.340;2023-08-24T10:54:52;32.40;99.90
16578;DHT22;8401;52.528;13.340;2023-08-24T10:57:23;32.70;99.90
16578;DHT22;8401;52.528;13.340;2023-08-24T11:00:09;32.30;99.90
16578;DHT22;8401;52.528;13.340;2023-08-24T11:02:42;33.50;99.90
16578;DHT22;8401;52.528;13.340;2023-08-24T11:05:28;33.10;99.90
16578;DHT22;8401;52.528;13.340;2023-08-24T11:08:05;32.40;99.90
16578;DHT22;8401;52.528;13.340;2023-08-24T11:10:44;32.20;99.90
16578;DHT22;8401;52.528;13.340;2023-08-24T11:13:18;32.30;99.90
16578;DHT22;8401;52.528;13.340;2023-08-24T11:15:46;32.50;99.90
16578;DHT22;8401;52.528;13.340;2023-08-24T11:20:49;33.50;99.90
16578;DHT22;8401;52.528;13.340;2023-08-24T11:23:16;33.20;99.90
16578;DHT22;8401;52.528;13.340;2023-08-24T11:25:42;33.20;99.90
16578;DHT22;8401;52.528;13.340;2023-08-24T11:28:28;33.50;99.90
16578;DHT22;8401;52.528;13.340;2023-08-24T11:30:55;32.60;99.90
16578;DHT22;8401;52.528;13.340;2023-08-24T11:33:32;31.80;99.90
16578;DHT22;8401;52.528;13.340;2023-08-24T11:35:59;32.20;99.90
16578;DHT22;8401;52.528;13.340;2023-08-24T11:38:34;32.20;99.90
16578;DHT22;8401;52.528;13.340;2023-08-24T11:41:00;32.50;99.90
16578;DHT22;8401;52.528;13.340;2023-08-24T11:43:26;32.20;99.90
16578;DHT22;8401;52.528;13.340;2023-08-24T11:45:54;31.90;99.90
16578;DHT22;8401;52.528;13.340;2023-08-24T11:48:24;31.40;99.90
16578;DHT22;8401;52.528;13.340;2023-08-24T11:50:50;30.70;99.90
16578;DHT22;8401;52.528;13.340;2023-08-24T11:53:17;30.50;99.90
16578;DHT22;8401;52.528;13.340;2023-08-24T11:55:44;30.50;99.90
16578;DHT22;8401;52.528;13.340;2023-08-24T11:58:18;30.20;99.90
16578;DHT22;8401;52.528;13.340;2023-08-24T12:00:45;30.00;99.90
16578;DHT22;8401;52.528;13.340;2023-08-24T12:03:11;29.60;99.90
16578;DHT22;8401;52.528;13.340;2023-08-24T12:05:37;29.40;99.90
16578;DHT22;8401;52.528;13.340;2023-08-24T12:08:03;29.30;99.90
16578;DHT22;8401;52.528;13.340;2023-08-24T12:10:30;29.30;99.90
16578;DHT22;8401;52.528;13.340;2023-08-24T12:13:05;29.20;99.90
16578;DHT22;8401;52.528;13.340;2023-08-24T12:15:34;29.20;99.90
16578;DHT22;8401;52.528;13.340;2023-08-24T12:18:15;29.40;99.90
16578;DHT22;8401;52.528;13.340;2023-08-24T12:20:41;29.30;99.90
16578;DHT22;8401;52.528;13.340;2023-08-24T12:23:07;29.10;99.90
16578;DHT22;8401;52.528;13.340;2023-08-24T12:25:43;29.10;99.90
16578;DHT22;8401;52.528;13.340;2023-08-24T12:28:14;28.80;99.90
16578;DHT22;8401;52.528;13.340;2023-08-24T12:30:47;28.70;99.90
16578;DHT22;8401;52.528;13.340;2023-08-24T12:33:27;29.10;99.90
16578;DHT22;8401;52.528;13.340;2023-08-24T12:35:53;29.50;99.90
16578;DHT22;8401;52.528;13.340;2023-08-24T12:38:21;29.50;99.90
16578;DHT22;8401;52.528;13.340;2023-08-24T12:40:46;29.90;99.90
16578;DHT22;8401;52.528;13.340;2023-08-24T12:43:12;29.70;99.90
16578;DHT22;8401;52.528;13.340;2023-08-24T12:45:39;29.70;99.90
16578;DHT22;8401;52.528;13.340;2023-08-24T12:48:05;29.40;99.90
16578;DHT22;8401;52.528;13.340;2023-08-24T12:50:33;29.20;99.90
16578;DHT22;8401;52.528;13.340;2023-08-24T12:52:58;28.90;99.90
16578;DHT22;8401;52.528;13.340;2023-08-24T12:55:28;28.80;99.90
16578;DHT22;8401;52.528;13.340;2023-08-24T12:57:54;29.00;99.90
16578;DHT22;8401;52.528;13.340;2023-08-24T13:00:19;28.70;99.90
16578;DHT22;8401;52.528;13.340;2023-08-24T13:02:45;28.70;99.90
16578;DHT22;8401;52.528;13.340;2023-08-24T13:05:11;28.90;99.90
16578;DHT22;8401;52.528;13.340;2023-08-24T13:07:38;29.40;99.90
16578;DHT22;8401;52.528;13.340;2023-08-24T13:10:04;30.00;99.90
16578;DHT22;8401;52.528;13.340;2023-08-24T13:12:30;29.50;99.90
16578;DHT22;8401;52.528;13.340;2023-08-24T13:14:56;29.30;99.90
16578;DHT22;8401;52.528;13.340;2023-08-24T13:17:21;29.30;99.90
16578;DHT22;8401;52.528;13.340;2023-08-24T13:19:47;29.30;99.90
16578;DHT22;8401;52.528;13.340;2023-08-24T13:22:14;29.40;99.90
16578;DHT22;8401;52.528;13.340;2023-08-24T13:24:41;29.40;99.90
16578;DHT22;8401;52.528;13.340;2023-08-24T13:27:08;29.30;99.90
16578;DHT22;8401;52.528;13.340;2023-08-24T13:29:39;29.10;99.90
16578;DHT22;8401;52.528;13.340;2023-08-24T13:32:06;29.10;99.90
16578;DHT22;8401;52.528;13.340;2023-08-24T13:34:31;29.80;99.90
16578;DHT22;8401;52.528;13.340;2023-08-24T13:36:57;30.10;99.90
16578;DHT22;8401;52.528;13.340;2023-08-24T13:39:26;30.60;99.90
16578;DHT22;8401;52.528;13.340;2023-08-24T13:42:01;30.30;99.90
16578;DHT22;8401;52.528;13.340;2023-08-24T13:44:27;30.40;99.90
16578;DHT22;8401;52.528;13.340;2023-08-24T13:46:53;30.20;99.90
16578;DHT22;8401;52.528;13.340;2023-08-24T13:49:19;30.20;99.90
16578;DHT22;8401;52.528;13.340;2023-08-24T13:51:45;30.20;99.90
16578;DHT22;8401;52.528;13.340;2023-08-24T13:54:17;29.90;99.90
16578;DHT22;8401;52.528;13.340;2023-08-24T13:56:47;29.40;99.90
16578;DHT22;8401;52.528;13.340;2023-08-24T13:59:14;29.30;99.90
16578;DHT22;8401;52.528;13.340;2023-08-24T14:01:43;29.30;99.90
16578;DHT22;8401;52.528;13.340;2023-08-24T14:04:09;30.00;99.90
16578;DHT22;8401;52.528;13.340;2023-08-24T14:06:35;30.00;99.90
16578;DHT22;8401;52.528;13.340;2023-08-24T14:09:02;29.80;99.90
16578;DHT22;8401;52.528;13.340;2023-08-24T14:11:28;29.80;99.90
16578;DHT22;8401;52.528;13.340;2023-08-24T14:13:55;29.90;99.90
16578;DHT22;8401;52.528;13.340;2023-08-24T14:16:20;29.30;99.90
16578;DHT22;8401;52.528;13.340;2023-08-24T14:18:47;28.80;99.90
16578;DHT22;8401;52.528;13.340;2023-08-24T14:21:13;28.70;99.90
16578;DHT22;8401;52.528;13.340;2023-08-24T14:23:39;28.70;99.90
16578;DHT22;8401;52.528;13.340;2023-08-24T14:26:05;29.50;99.90
16578;DHT22;8401;52.528;13.340;2023-08-24T14:28:52;29.80;99.90
16578;DHT22;8401;52.528;13.340;2023-08-24T14:31:29;30.30;99.90
16578;DHT22;8401;52.528;13.340;2023-08-24T14:33:55;30.50;99.90
16578;DHT22;8401;52.528;13.340;2023-08-24T14:36:21;30.30;99.90
16578;DHT22;8401;52.528;13.340;2023-08-24T14:38:47;30.20;99.90
16578;DHT22;8401;52.528;13.340;2023-08-24T14:41:14;29.80;99.90
16578;DHT22;8401;52.528;13.340;2023-08-24T14:43:41;30.10;99.90
16578;DHT22;8401;52.528;13.340;2023-08-24T14:46:07;29.90;99.90
16578;DHT22;8401;52.528;13.340;2023-08-24T14:48:33;29.90;99.90
16578;DHT22;8401;52.528;13.340;2023-08-24T14:50:59;29.50;99.90
16578;DHT22;8401;52.528;13.340;2023-08-24T14:53:25;29.30;99.90
16578;DHT22;8401;52.528;13.340;2023-08-24T14:55:52;29.40;99.90
16578;DHT22;8401;52.528;13.340;2023-08-24T14:58:20;29.10;99.90
16578;DHT22;8401;52.528;13.340;2023-08-24T15:00:45;29.10;99.90
16578;DHT22;8401;52.528;13.340;2023-08-24T15:03:12;29.30;99.90
16578;DHT22;8401;52.528;13.340;2023-08-24T15:05:42;29.20;99.90
16578;DHT22;8401;52.528;13.340;2023-08-24T15:08:07;29.20;99.90
16578;DHT22;8401;52.528;13.340;2023-08-24T15:10:33;29.40;99.90
16578;DHT22;8401;52.528;13.340;2023-08-24T15:12:59;29.40;99.90
16578;DHT22;8401;52.528;13.340;2023-08-24T15:15:24;29.30;99.90
16578;DHT22;8401;52.528;13.340;2023-08-24T15:17:50;29.50;99.90
16578;DHT22;8401;52.528;13.340;2023-08-24T15:20:16;30.00;99.90
16578;DHT22;8401;52.528;13.340;2023-08-24T15:22:42;30.30;99.90
16578;DHT22;8401;52.528;13.340;2023-08-24T15:25:07;30.00;99.90
16578;DHT22;8401;52.528;13.340;2023-08-24T15:27:33;29.80;99.90
16578;DHT22;8401;52.528;13.340;2023-08-24T15:29:59;29.90;99.90
16578;DHT22;8401;52.528;13.340;2023-08-24T15:32:30;29.90;99.90
16578;DHT22;8401;52.528;13.340;2023-08-24T15:34:56;29.80;99.90
16578;DHT22;8401;52.528;13.340;2023-08-24T15:37:21;29.90;99.90
16578;DHT22;8401;52.528;13.340;2023-08-24T15:39:47;30.00;99.90
16578;DHT22;8401;52.528;13.340;2023-08-24T15:42:13;30.00;99.90